sensor_id;sensor_type;location;lat;lon;timestamp;pressure;altitude;pressure_sealevel;temperature;humidity
32197;BME280;18697;42.770;23.400;2023-08-06T00:02:17;94471.09;;;26.49;57.17
32197;BME280;18697;42.770;23.400;2023-08-06T00:04:42;94457.47;;;26.48;57.14
32197;BME280;18697;42.770;23.400;2023-08-06T00:07:07;94461.81;;;26.59;56.59
32197;BME280;18697;42.770;23.400;2023-08-06T00:09:33;94454.63;;;26.58;57.01
32197;BME280;18697;42.770;23.400;2023-08-06T00:11:58;94442.19;;;26.63;56.00
32197;BME280;18697;42.770;23.400;2023-08-06T00:14:23;94437.97;;;26.64;56.60
32197;BME280;18697;42.770;23.400;2023-08-06T00:16:49;94409.38;;;26.42;56.73
32197;BME280;18697;42.770;23.400;2023-08-06T00:19:14;94432.88;;;26.33;57.72
32197;BME280;18697;42.770;23.400;2023-08-06T00:21:40;94456.13;;;24.93;62.73
32197;BME280;18697;42.770;23.400;2023-08-06T00:24:05;94466.38;;;23.35;68.82
32197;BME280;18697;42.770;23.400;2023-08-06T00:26:30;94441.28;;;23.81;66.54
32197;BME280;18697;42.770;23.400;2023-08-06T00:28:56;94436.00;;;24.37;64.49
32197;BME280;18697;42.770;23.400;2023-08-06T00:31:21;94427.16;;;24.77;63.11
32197;BME280;18697;42.770;23.400;2023-08-06T00:33:46;94438.03;;;25.15;61.80
32197;BME280;18697;42.770;23.400;2023-08-06T00:36:12;94419.34;;;25.49;60.73
32197;BME280;18697;42.770;23.400;2023-08-06T00:38:37;94409.72;;;25.71;59.84
32197;BME280;18697;42.770;23.400;2023-08-06T00:41:03;94412.75;;;25.93;58.91
32197;BME280;18697;42.770;23.400;2023-08-06T00:43:28;94411.88;;;26.00;59.25
32197;BME280;18697;42.770;23.400;2023-08-06T00:45:54;94390.91;;;26.14;58.85
32197;BME280;18697;42.770;23.400;2023-08-06T00:48:20;94386.75;;;26.35;58.10
32197;BME280;18697;42.770;23.400;2023-08-06T00:50:45;94391.22;;;26.47;57.87
32197;BME280;18697;42.770;23.400;2023-08-06T00:53:11;94387.50;;;26.45;57.98
32197;BME280;18697;42.770;23.400;2023-08-06T00:55:37;94401.03;;;25.69;59.99
32197;BME280;18697;42.770;23.400;2023-08-06T00:58:02;94407.59;;;24.03;66.46
32197;BME280;18697;42.770;23.400;2023-08-06T01:00:28;94398.13;;;24.42;64.65
32197;BME280;18697;42.770;23.400;2023-08-06T01:02:54;94396.75;;;24.87;62.98
32197;BME280;18697;42.770;23.400;2023-08-06T01:05:20;94388.44;;;24.72;64.17
32197;BME280;18697;42.770;23.400;2023-08-06T01:13:33;94372.28;;;25.29;61.60
32197;BME280;18697;42.770;23.400;2023-08-06T01:16:03;94363.09;;;25.57;60.90
32197;BME280;18697;42.770;23.400;2023-08-06T01:18:30;94356.94;;;25.41;61.24
32197;BME280;18697;42.770;23.400;2023-08-06T01:20:56;94354.31;;;25.16;62.38
32197;BME280;18697;42.770;23.400;2023-08-06T01:23:22;94345.75;;;25.07;62.19
32197;BME280;18697;42.770;23.400;2023-08-06T01:31:24;94371.28;;;24.97;62.70
32197;BME280;18697;42.770;23.400;2023-08-06T01:33:53;94351.53;;;25.36;61.43
32197;BME280;18697;42.770;23.400;2023-08-06T01:36:19;94353.97;;;25.59;60.73
32197;BME280;18697;42.770;23.400;2023-08-06T01:38:45;94343.88;;;25.84;59.59
32197;BME280;18697;42.770;23.400;2023-08-06T01:41:11;94339.25;;;25.99;59.73
32197;BME280;18697;42.770;23.400;2023-08-06T01:43:36;94350.03;;;26.10;58.72
32197;BME280;18697;42.770;23.400;2023-08-06T01:46:02;94357.81;;;26.19;59.04
32197;BME280;18697;42.770;23.400;2023-08-06T01:48:27;94345.06;;;26.20;59.26
32197;BME280;18697;42.770;23.400;2023-08-06T01:50:53;94346.91;;;26.35;58.03
32197;BME280;18697;42.770;23.400;2023-08-06T01:53:18;94340.16;;;26.49;57.25
32197;BME280;18697;42.770;23.400;2023-08-06T01:55:48;94338.78;;;26.50;58.16
32197;BME280;18697;42.770;23.400;2023-08-06T01:58:13;94334.16;;;26.45;58.66
32197;BME280;18697;42.770;23.400;2023-08-06T02:00:39;94330.44;;;26.33;57.88
32197;BME280;18697;42.770;23.400;2023-08-06T02:03:04;94327.88;;;26.37;57.57
32197;BME280;18697;42.770;23.400;2023-08-06T02:05:29;94331.31;;;26.36;58.06
32197;BME280;18697;42.770;23.400;2023-08-06T02:07:55;94328.31;;;26.34;57.95
32197;BME280;18697;42.770;23.400;2023-08-06T02:10:20;94336.25;;;26.35;58.15
32197;BME280;18697;42.770;23.400;2023-08-06T02:12:45;94328.47;;;26.36;58.68
32197;BME280;18697;42.770;23.400;2023-08-06T02:15:11;94316.63;;;26.30;59.15
32197;BME280;18697;42.770;23.400;2023-08-06T02:17:36;94320.50;;;26.25;58.12
32197;BME280;18697;42.770;23.400;2023-08-06T02:20:01;94322.16;;;26.28;58.26
32197;BME280;18697;42.770;23.400;2023-08-06T02:22:27;94324.25;;;26.27;58.09
32197;BME280;18697;42.770;23.400;2023-08-06T02:24:52;94322.75;;;26.26;58.73
32197;BME280;18697;42.770;23.400;2023-08-06T02:27:18;94331.91;;;26.25;58.89
32197;BME280;18697;42.770;23.400;2023-08-06T02:29:43;94335.19;;;26.21;59.41
32197;BME280;18697;42.770;23.400;2023-08-06T02:32:10;94344.94;;;26.18;58.49
32197;BME280;18697;42.770;23.400;2023-08-06T02:34:35;94351.38;;;26.09;59.54
32197;BME280;18697;42.770;23.400;2023-08-06T02:37:00;94363.97;;;25.96;59.65
32197;BME280;18697;42.770;23.400;2023-08-06T02:39:25;94376.06;;;25.87;60.05
32197;BME280;18697;42.770;23.400;2023-08-06T02:41:51;94370.97;;;25.85;60.76
32197;BME280;18697;42.770;23.400;2023-08-06T02:44:16;94382.25;;;25.57;61.25
32197;BME280;18697;42.770;23.400;2023-08-06T02:46:42;94380.25;;;25.40;62.97
32197;BME280;18697;42.770;23.400;2023-08-06T02:49:09;94372.44;;;25.21;63.39
32197;BME280;18697;42.770;23.400;2023-08-06T02:51:34;94382.44;;;24.95;64.15
32197;BME280;18697;42.770;23.400;2023-08-06T02:53:59;94387.56;;;24.97;63.40
32197;BME280;18697;42.770;23.400;2023-08-06T02:56:25;94393.75;;;24.85;64.85
32197;BME280;18697;42.770;23.400;2023-08-06T02:58:51;94379.06;;;24.79;65.00
32197;BME280;18697;42.770;23.400;2023-08-06T03:01:16;94362.03;;;24.79;64.54
32197;BME280;18697;42.770;23.400;2023-08-06T03:03:42;94361.59;;;24.83;64.52
32197;BME280;18697;42.770;23.400;2023-08-06T03:06:07;94348.63;;;24.89;64.44
32197;BME280;18697;42.770;23.400;2023-08-06T03:08:33;94327.75;;;24.95;64.46
32197;BME280;18697;42.770;23.400;2023-08-06T03:10:58;94319.41;;;24.97;64.72
32197;BME280;18697;42.770;23.400;2023-08-06T03:13:23;94326.25;;;24.94;64.68
32197;BME280;18697;42.770;23.400;2023-08-06T03:15:56;94306.44;;;25.03;64.08
32197;BME280;18697;42.770;23.400;2023-08-06T03:18:22;94307.50;;;25.08;63.88
32197;BME280;18697;42.770;23.400;2023-08-06T03:20:48;94307.38;;;25.15;63.27
32197;BME280;18697;42.770;23.400;2023-08-06T03:23:13;94298.06;;;25.05;64.66
32197;BME280;18697;42.770;23.400;2023-08-06T03:25:38;94276.75;;;24.87;64.98
32197;BME280;18697;42.770;23.400;2023-08-06T03:28:04;94240.38;;;23.68;68.94
32197;BME280;18697;42.770;23.400;2023-08-06T03:30:29;94223.63;;;22.61;73.94
32197;BME280;18697;42.770;23.400;2023-08-06T03:32:54;94239.38;;;22.22;77.93
32197;BME280;18697;42.770;23.400;2023-08-06T03:35:20;94273.25;;;21.89;79.01
32197;BME280;18697;42.770;23.400;2023-08-06T03:37:46;94253.19;;;21.62;80.87
32197;BME280;18697;42.770;23.400;2023-08-06T03:40:11;94279.91;;;20.76;85.15
32197;BME280;18697;42.770;23.400;2023-08-06T03:42:36;94337.19;;;19.89;93.24
32197;BME280;18697;42.770;23.400;2023-08-06T03:45:02;94342.25;;;19.54;98.11
32197;BME280;18697;42.770;23.400;2023-08-06T03:47:28;94350.94;;;19.07;100.00
32197;BME280;18697;42.770;23.400;2023-08-06T03:49:53;94340.84;;;19.12;100.00
32197;BME280;18697;42.770;23.400;2023-08-06T03:52:18;94328.72;;;18.96;100.00
32197;BME280;18697;42.770;23.400;2023-08-06T03:54:44;94333.38;;;19.14;100.00
32197;BME280;18697;42.770;23.400;2023-08-06T03:57:09;94319.59;;;19.60;100.00
32197;BME280;18697;42.770;23.400;2023-08-06T03:59:35;94322.25;;;20.24;99.31
32197;BME280;18697;42.770;23.400;2023-08-06T04:02:00;94350.97;;;20.82;92.94
32197;BME280;18697;42.770;23.400;2023-08-06T04:04:26;94374.28;;;20.82;91.14
32197;BME280;18697;42.770;23.400;2023-08-06T04:06:51;94393.63;;;20.55;93.41
32197;BME280;18697;42.770;23.400;2023-08-06T04:09:16;94396.22;;;20.38;95.43
32197;BME280;18697;42.770;23.400;2023-08-06T04:11:42;94391.03;;;20.21;98.98
32197;BME280;18697;42.770;23.400;2023-08-06T04:14:07;94374.69;;;20.79;93.40
32197;BME280;18697;42.770;23.400;2023-08-06T04:16:33;94375.06;;;21.59;86.20
32197;BME280;18697;42.770;23.400;2023-08-06T04:18:58;94375.97;;;22.32;81.34
32197;BME280;18697;42.770;23.400;2023-08-06T04:21:24;94381.91;;;22.59;80.13
32197;BME280;18697;42.770;23.400;2023-08-06T04:23:49;94378.69;;;22.95;77.94
32197;BME280;18697;42.770;23.400;2023-08-06T04:26:14;94374.81;;;22.75;79.52
32197;BME280;18697;42.770;23.400;2023-08-06T04:28:40;94369.69;;;22.89;77.96
32197;BME280;18697;42.770;23.400;2023-08-06T04:31:05;94373.88;;;23.30;75.19
32197;BME280;18697;42.770;23.400;2023-08-06T04:33:30;94350.97;;;23.78;72.90
32197;BME280;18697;42.770;23.400;2023-08-06T04:35:56;94349.06;;;24.32;70.57
32197;BME280;18697;42.770;23.400;2023-08-06T04:38:25;94346.19;;;24.76;69.18
32197;BME280;18697;42.770;23.400;2023-08-06T04:40:51;94346.41;;;25.15;67.64
32197;BME280;18697;42.770;23.400;2023-08-06T04:43:17;94332.81;;;25.33;66.87
32197;BME280;18697;42.770;23.400;2023-08-06T04:45:49;94317.44;;;25.36;66.76
32197;BME280;18697;42.770;23.400;2023-08-06T04:48:14;94308.31;;;25.37;66.75
32197;BME280;18697;42.770;23.400;2023-08-06T04:50:47;94299.66;;;25.45;66.34
32197;BME280;18697;42.770;23.400;2023-08-06T04:53:13;94293.97;;;25.45;66.19
32197;BME280;18697;42.770;23.400;2023-08-06T04:55:39;94292.19;;;25.59;65.81
32197;BME280;18697;42.770;23.400;2023-08-06T04:58:04;94285.22;;;25.79;65.33
32197;BME280;18697;42.770;23.400;2023-08-06T05:00:30;94271.16;;;25.91;64.76
32197;BME280;18697;42.770;23.400;2023-08-06T05:02:56;94273.69;;;25.97;64.19
32197;BME280;18697;42.770;23.400;2023-08-06T05:05:21;94284.00;;;26.02;64.45
32197;BME280;18697;42.770;23.400;2023-08-06T05:07:49;94286.53;;;26.07;63.84
32197;BME280;18697;42.770;23.400;2023-08-06T05:10:15;94297.75;;;26.15;63.14
32197;BME280;18697;42.770;23.400;2023-08-06T05:12:40;94297.91;;;26.27;63.34
32197;BME280;18697;42.770;23.400;2023-08-06T05:15:06;94299.69;;;26.22;63.69
32197;BME280;18697;42.770;23.400;2023-08-06T05:17:32;94317.06;;;26.26;63.27
32197;BME280;18697;42.770;23.400;2023-08-06T05:19:57;94329.50;;;26.11;64.04
32197;BME280;18697;42.770;23.400;2023-08-06T05:22:22;94312.72;;;26.15;63.72
32197;BME280;18697;42.770;23.400;2023-08-06T05:24:48;94320.22;;;26.01;63.89
32197;BME280;18697;42.770;23.400;2023-08-06T05:27:13;94324.28;;;25.89;64.19
32197;BME280;18697;42.770;23.400;2023-08-06T05:29:39;94322.03;;;25.87;63.85
32197;BME280;18697;42.770;23.400;2023-08-06T05:32:04;94320.75;;;25.51;65.48
32197;BME280;18697;42.770;23.400;2023-08-06T05:34:30;94333.81;;;25.64;64.57
32197;BME280;18697;42.770;23.400;2023-08-06T05:36:55;94314.09;;;25.76;64.61
32197;BME280;18697;42.770;23.400;2023-08-06T05:39:21;94311.66;;;25.63;64.96
32197;BME280;18697;42.770;23.400;2023-08-06T05:41:46;94310.44;;;25.56;65.16
32197;BME280;18697;42.770;23.400;2023-08-06T05:44:11;94307.91;;;25.60;64.71
32197;BME280;18697;42.770;23.400;2023-08-06T05:46:37;94299.13;;;25.66;64.99
32197;BME280;18697;42.770;23.400;2023-08-06T05:49:03;94291.75;;;25.63;65.79
32197;BME280;18697;42.770;23.400;2023-08-06T05:51:30;94281.69;;;25.42;66.90
32197;BME280;18697;42.770;23.400;2023-08-06T05:53:55;94294.34;;;25.12;67.28
32197;BME280;18697;42.770;23.400;2023-08-06T05:56:21;94294.00;;;24.72;69.14
32197;BME280;18697;42.770;23.400;2023-08-06T05:58:46;94290.28;;;24.42;70.31
32197;BME280;18697;42.770;23.400;2023-08-06T06:01:12;94297.56;;;24.36;70.84
32197;BME280;18697;42.770;23.400;2023-08-06T06:03:38;94304.41;;;24.60;70.66
32197;BME280;18697;42.770;23.400;2023-08-06T06:06:03;94303.75;;;24.78;69.01
32197;BME280;18697;42.770;23.400;2023-08-06T06:08:29;94334.91;;;24.96;68.17
32197;BME280;18697;42.770;23.400;2023-08-06T06:10:54;94340.66;;;25.05;69.75
32197;BME280;18697;42.770;23.400;2023-08-06T06:13:19;94348.00;;;24.81;70.48
32197;BME280;18697;42.770;23.400;2023-08-06T06:15:46;94348.63;;;24.63;70.89
32197;BME280;18697;42.770;23.400;2023-08-06T06:18:12;94354.31;;;24.36;71.86
32197;BME280;18697;42.770;23.400;2023-08-06T06:20:38;94366.31;;;24.44;70.85
32197;BME280;18697;42.770;23.400;2023-08-06T06:23:03;94356.63;;;24.47;71.34
32197;BME280;18697;42.770;23.400;2023-08-06T06:25:28;94361.41;;;24.44;71.88
32197;BME280;18697;42.770;23.400;2023-08-06T06:27:54;94363.00;;;24.65;70.64
32197;BME280;18697;42.770;23.400;2023-08-06T06:30:19;94371.84;;;24.69;71.92
32197;BME280;18697;42.770;23.400;2023-08-06T06:32:45;94377.47;;;24.86;70.65
32197;BME280;18697;42.770;23.400;2023-08-06T06:35:10;94375.25;;;24.94;69.61
32197;BME280;18697;42.770;23.400;2023-08-06T06:37:35;94375.84;;;24.93;70.04
32197;BME280;18697;42.770;23.400;2023-08-06T06:40:01;94374.06;;;25.14;69.18
32197;BME280;18697;42.770;23.400;2023-08-06T06:42:26;94377.59;;;25.05;67.39
32197;BME280;18697;42.770;23.400;2023-08-06T06:44:51;94382.88;;;25.18;67.14
32197;BME280;18697;42.770;23.400;2023-08-06T06:47:17;94395.28;;;25.13;66.98
32197;BME280;18697;42.770;23.400;2023-08-06T06:49:42;94388.03;;;25.03;65.79
32197;BME280;18697;42.770;23.400;2023-08-06T06:52:07;94391.56;;;25.20;65.43
32197;BME280;18697;42.770;23.400;2023-08-06T06:54:33;94386.34;;;25.27;65.61
32197;BME280;18697;42.770;23.400;2023-08-06T06:56:58;94382.31;;;25.30;64.06
32197;BME280;18697;42.770;23.400;2023-08-06T06:59:24;94391.41;;;25.18;63.45
32197;BME280;18697;42.770;23.400;2023-08-06T07:01:49;94388.63;;;25.38;64.82
32197;BME280;18697;42.770;23.400;2023-08-06T07:04:14;94401.53;;;25.48;62.89
32197;BME280;18697;42.770;23.400;2023-08-06T07:06:40;94408.88;;;25.51;64.08
32197;BME280;18697;42.770;23.400;2023-08-06T07:09:05;94406.00;;;25.78;63.41
32197;BME280;18697;42.770;23.400;2023-08-06T07:11:31;94406.31;;;26.02;62.37
32197;BME280;18697;42.770;23.400;2023-08-06T07:13:57;94411.25;;;26.01;61.00
32197;BME280;18697;42.770;23.400;2023-08-06T07:16:26;94407.53;;;25.99;60.68
32197;BME280;18697;42.770;23.400;2023-08-06T07:18:52;94421.41;;;25.85;58.81
32197;BME280;18697;42.770;23.400;2023-08-06T07:21:18;94426.63;;;25.69;59.57
32197;BME280;18697;42.770;23.400;2023-08-06T07:23:43;94421.16;;;25.54;60.67
32197;BME280;18697;42.770;23.400;2023-08-06T07:26:09;94419.97;;;25.57;61.04
32197;BME280;18697;42.770;23.400;2023-08-06T07:28:34;94419.88;;;25.65;61.47
32197;BME280;18697;42.770;23.400;2023-08-06T07:31:00;94414.66;;;25.80;61.09
32197;BME280;18697;42.770;23.400;2023-08-06T07:33:25;94422.94;;;26.15;60.11
32197;BME280;18697;42.770;23.400;2023-08-06T07:35:50;94420.16;;;26.34;59.29
32197;BME280;18697;42.770;23.400;2023-08-06T07:38:16;94417.75;;;26.60;58.92
32197;BME280;18697;42.770;23.400;2023-08-06T07:40:41;94409.59;;;26.85;58.36
32197;BME280;18697;42.770;23.400;2023-08-06T07:43:07;94412.06;;;26.69;57.18
32197;BME280;18697;42.770;23.400;2023-08-06T07:45:36;94415.03;;;26.71;57.42
32197;BME280;18697;42.770;23.400;2023-08-06T07:48:02;94409.81;;;26.68;56.06
32197;BME280;18697;42.770;23.400;2023-08-06T07:50:27;94406.16;;;26.87;57.14
32197;BME280;18697;42.770;23.400;2023-08-06T07:52:53;94408.75;;;26.73;55.88
32197;BME280;18697;42.770;23.400;2023-08-06T07:55:18;94402.91;;;26.61;56.12
32197;BME280;18697;42.770;23.400;2023-08-06T07:57:44;94411.00;;;26.45;56.87
32197;BME280;18697;42.770;23.400;2023-08-06T08:00:09;94405.47;;;26.47;56.06
32197;BME280;18697;42.770;23.400;2023-08-06T08:02:35;94418.19;;;26.56;55.75
32197;BME280;18697;42.770;23.400;2023-08-06T08:05:00;94394.50;;;26.73;55.18
32197;BME280;18697;42.770;23.400;2023-08-06T08:07:26;94396.84;;;26.86;55.83
32197;BME280;18697;42.770;23.400;2023-08-06T08:09:54;94400.75;;;26.91;54.59
32197;BME280;18697;42.770;23.400;2023-08-06T08:12:19;94402.69;;;26.88;56.14
32197;BME280;18697;42.770;23.400;2023-08-06T08:14:44;94394.16;;;26.88;55.65
32197;BME280;18697;42.770;23.400;2023-08-06T08:17:11;94407.81;;;26.99;55.96
32197;BME280;18697;42.770;23.400;2023-08-06T08:19:37;94401.34;;;27.08;54.27
32197;BME280;18697;42.770;23.400;2023-08-06T08:22:02;94404.63;;;27.14;54.34
32197;BME280;18697;42.770;23.400;2023-08-06T08:24:28;94410.16;;;27.22;54.30
32197;BME280;18697;42.770;23.400;2023-08-06T08:26:56;94398.84;;;27.34;54.23
32197;BME280;18697;42.770;23.400;2023-08-06T08:29:22;94409.94;;;27.39;52.67
32197;BME280;18697;42.770;23.400;2023-08-06T08:31:48;94419.13;;;27.28;51.72
32197;BME280;18697;42.770;23.400;2023-08-06T08:34:18;94405.47;;;27.27;52.88
32197;BME280;18697;42.770;23.400;2023-08-06T08:36:43;94413.88;;;27.25;52.73
32197;BME280;18697;42.770;23.400;2023-08-06T08:39:13;94416.97;;;27.48;53.01
32197;BME280;18697;42.770;23.400;2023-08-06T08:41:39;94411.34;;;27.60;53.09
32197;BME280;18697;42.770;23.400;2023-08-06T08:44:08;94408.94;;;27.56;51.78
32197;BME280;18697;42.770;23.400;2023-08-06T08:46:36;94399.09;;;27.78;50.77
32197;BME280;18697;42.770;23.400;2023-08-06T08:49:03;94396.47;;;27.92;51.37
32197;BME280;18697;42.770;23.400;2023-08-06T08:51:30;94399.00;;;27.98;51.81
32197;BME280;18697;42.770;23.400;2023-08-06T08:53:55;94403.34;;;28.20;52.00
32197;BME280;18697;42.770;23.400;2023-08-06T08:56:24;94396.56;;;28.25;49.84
32197;BME280;18697;42.770;23.400;2023-08-06T08:58:50;94398.53;;;28.23;49.98
32197;BME280;18697;42.770;23.400;2023-08-06T09:01:18;94387.56;;;28.40;50.80
32197;BME280;18697;42.770;23.400;2023-08-06T09:03:45;94381.34;;;28.32;48.39
32197;BME280;18697;42.770;23.400;2023-08-06T09:06:12;94375.72;;;28.56;49.06
32197;BME280;18697;42.770;23.400;2023-08-06T09:08:53;94379.59;;;28.60;48.95
32197;BME280;18697;42.770;23.400;2023-08-06T09:11:20;94378.22;;;28.61;48.43
32197;BME280;18697;42.770;23.400;2023-08-06T09:13:47;94372.78;;;28.65;49.47
32197;BME280;18697;42.770;23.400;2023-08-06T09:16:12;94363.72;;;28.69;49.00
32197;BME280;18697;42.770;23.400;2023-08-06T09:18:39;94368.47;;;28.76;49.24
32197;BME280;18697;42.770;23.400;2023-08-06T09:21:04;94371.41;;;28.33;49.52
32197;BME280;18697;42.770;23.400;2023-08-06T09:23:30;94363.41;;;28.20;49.12
32197;BME280;18697;42.770;23.400;2023-08-06T09:25:57;94370.59;;;28.42;49.78
32197;BME280;18697;42.770;23.400;2023-08-06T09:28:23;94361.19;;;28.52;50.83
32197;BME280;18697;42.770;23.400;2023-08-06T09:30:52;94367.94;;;28.68;48.85
32197;BME280;18697;42.770;23.400;2023-08-06T09:33:22;94361.94;;;28.85;49.13
32197;BME280;18697;42.770;23.400;2023-08-06T09:35:47;94357.75;;;29.09;48.02
32197;BME280;18697;42.770;23.400;2023-08-06T09:38:13;94352.56;;;29.29;48.95
32197;BME280;18697;42.770;23.400;2023-08-06T09:40:39;94357.41;;;29.38;47.60
32197;BME280;18697;42.770;23.400;2023-08-06T09:43:05;94350.97;;;29.50;46.22
32197;BME280;18697;42.770;23.400;2023-08-06T09:45:35;94347.13;;;29.57;46.84
32197;BME280;18697;42.770;23.400;2023-08-06T09:48:08;94355.94;;;29.49;46.58
32197;BME280;18697;42.770;23.400;2023-08-06T09:50:35;94352.34;;;29.49;47.00
32197;BME280;18697;42.770;23.400;2023-08-06T09:53:03;94353.47;;;29.55;47.03
32197;BME280;18697;42.770;23.400;2023-08-06T09:55:29;94347.50;;;29.51;47.34
32197;BME280;18697;42.770;23.400;2023-08-06T09:57:55;94343.75;;;29.60;47.09
32197;BME280;18697;42.770;23.400;2023-08-06T10:00:21;94338.38;;;29.78;47.29
32197;BME280;18697;42.770;23.400;2023-08-06T10:02:46;94348.88;;;29.62;44.78
32197;BME280;18697;42.770;23.400;2023-08-06T10:05:14;94343.59;;;29.82;45.12
32197;BME280;18697;42.770;23.400;2023-08-06T10:07:39;94348.31;;;29.89;44.47
32197;BME280;18697;42.770;23.400;2023-08-06T10:10:05;94358.25;;;29.88;43.76
32197;BME280;18697;42.770;23.400;2023-08-06T10:12:37;94354.34;;;29.46;43.17
32197;BME280;18697;42.770;23.400;2023-08-06T10:15:09;94357.31;;;29.48;43.99
32197;BME280;18697;42.770;23.400;2023-08-06T10:17:36;94357.56;;;29.64;45.77
32197;BME280;18697;42.770;23.400;2023-08-06T10:20:04;94366.28;;;29.66;44.35
32197;BME280;18697;42.770;23.400;2023-08-06T10:22:33;94368.88;;;29.62;43.77
32197;BME280;18697;42.770;23.400;2023-08-06T10:24:59;94373.94;;;29.40;44.18
32197;BME280;18697;42.770;23.400;2023-08-06T10:27:35;94363.13;;;29.38;44.53
32197;BME280;18697;42.770;23.400;2023-08-06T10:30:46;94364.75;;;29.30;44.75
32197;BME280;18697;42.770;23.400;2023-08-06T10:33:12;94367.31;;;28.91;45.08
32197;BME280;18697;42.770;23.400;2023-08-06T10:38:08;94361.22;;;28.30;44.57
32197;BME280;18697;42.770;23.400;2023-08-06T10:40:41;94365.44;;;28.29;45.88
32197;BME280;18697;42.770;23.400;2023-08-06T10:43:07;94375.09;;;28.24;46.43
32197;BME280;18697;42.770;23.400;2023-08-06T10:45:35;94375.00;;;28.34;46.72
32197;BME280;18697;42.770;23.400;2023-08-06T10:48:02;94375.75;;;28.34;46.36
32197;BME280;18697;42.770;23.400;2023-08-06T10:50:27;94375.63;;;28.32;46.81
32197;BME280;18697;42.770;23.400;2023-08-06T10:52:53;94379.34;;;28.35;47.42
32197;BME280;18697;42.770;23.400;2023-08-06T10:55:23;94388.69;;;28.14;47.41
32197;BME280;18697;42.770;23.400;2023-08-06T10:57:49;94376.09;;;28.07;47.68
32197;BME280;18697;42.770;23.400;2023-08-06T11:00:14;94386.16;;;28.08;47.49
32197;BME280;18697;42.770;23.400;2023-08-06T11:02:40;94391.53;;;28.14;47.42
32197;BME280;18697;42.770;23.400;2023-08-06T11:05:09;94390.72;;;28.23;47.71
32197;BME280;18697;42.770;23.400;2023-08-06T11:07:36;94392.59;;;28.52;44.96
32197;BME280;18697;42.770;23.400;2023-08-06T11:10:05;94390.84;;;28.46;44.50
32197;BME280;18697;42.770;23.400;2023-08-06T11:12:34;94401.56;;;28.58;44.57
32197;BME280;18697;42.770;23.400;2023-08-06T11:15:01;94395.94;;;28.27;43.40
32197;BME280;18697;42.770;23.400;2023-08-06T11:17:31;94394.09;;;28.10;43.55
32197;BME280;18697;42.770;23.400;2023-08-06T11:20:02;94404.50;;;28.05;43.76
32197;BME280;18697;42.770;23.400;2023-08-06T11:22:28;94397.78;;;28.01;43.44
32197;BME280;18697;42.770;23.400;2023-08-06T11:24:54;94404.50;;;28.05;43.78
32197;BME280;18697;42.770;23.400;2023-08-06T11:27:20;94408.31;;;27.98;44.16
32197;BME280;18697;42.770;23.400;2023-08-06T11:29:45;94405.16;;;27.94;44.24
32197;BME280;18697;42.770;23.400;2023-08-06T11:32:11;94405.78;;;27.93;44.04
32197;BME280;18697;42.770;23.400;2023-08-06T11:34:38;94401.44;;;27.92;44.55
32197;BME280;18697;42.770;23.400;2023-08-06T11:37:04;94402.63;;;27.67;45.58
32197;BME280;18697;42.770;23.400;2023-08-06T11:39:36;94399.09;;;27.78;45.43
32197;BME280;18697;42.770;23.400;2023-08-06T11:42:08;94389.94;;;27.80;45.50
32197;BME280;18697;42.770;23.400;2023-08-06T11:44:36;94386.47;;;27.81;44.09
32197;BME280;18697;42.770;23.400;2023-08-06T11:47:03;94383.50;;;27.79;44.26
32197;BME280;18697;42.770;23.400;2023-08-06T11:52:19;94374.06;;;28.74;43.60
32197;BME280;18697;42.770;23.400;2023-08-06T11:57:32;94373.78;;;29.15;38.71
32197;BME280;18697;42.770;23.400;2023-08-06T12:00:11;94371.25;;;29.42;39.46
32197;BME280;18697;42.770;23.400;2023-08-06T12:02:39;94370.00;;;29.57;39.28
32197;BME280;18697;42.770;23.400;2023-08-06T12:07:38;94370.22;;;29.72;40.29
32197;BME280;18697;42.770;23.400;2023-08-06T12:10:03;94368.72;;;29.83;39.30
32197;BME280;18697;42.770;23.400;2023-08-06T12:12:29;94363.53;;;29.56;41.25
32197;BME280;18697;42.770;23.400;2023-08-06T12:14:55;94366.84;;;29.88;40.63
32197;BME280;18697;42.770;23.400;2023-08-06T12:17:21;94379.94;;;30.02;38.47
32197;BME280;18697;42.770;23.400;2023-08-06T12:19:47;94372.81;;;29.92;39.03
32197;BME280;18697;42.770;23.400;2023-08-06T12:22:13;94372.75;;;29.66;39.38
32197;BME280;18697;42.770;23.400;2023-08-06T12:24:40;94371.25;;;29.65;40.06
32197;BME280;18697;42.770;23.400;2023-08-06T12:27:06;94358.69;;;29.59;40.80
32197;BME280;18697;42.770;23.400;2023-08-06T12:29:31;94361.75;;;29.74;40.48
32197;BME280;18697;42.770;23.400;2023-08-06T12:31:56;94348.88;;;29.62;40.29
32197;BME280;18697;42.770;23.400;2023-08-06T12:34:23;94355.53;;;29.90;39.55
32197;BME280;18697;42.770;23.400;2023-08-06T12:36:48;94363.09;;;29.97;38.89
32197;BME280;18697;42.770;23.400;2023-08-06T12:39:13;94363.84;;;30.09;36.73
32197;BME280;18697;42.770;23.400;2023-08-06T12:41:39;94370.06;;;30.17;34.98
32197;BME280;18697;42.770;23.400;2023-08-06T12:44:04;94367.59;;;30.00;35.37
32197;BME280;18697;42.770;23.400;2023-08-06T12:46:30;94364.78;;;29.53;36.08
32197;BME280;18697;42.770;23.400;2023-08-06T12:48:56;94357.03;;;29.32;36.61
32197;BME280;18697;42.770;23.400;2023-08-06T12:51:23;94352.53;;;29.18;37.92
32197;BME280;18697;42.770;23.400;2023-08-06T12:53:49;94346.56;;;29.14;38.74
32197;BME280;18697;42.770;23.400;2023-08-06T12:56:14;94341.84;;;29.18;39.12
32197;BME280;18697;42.770;23.400;2023-08-06T12:58:39;94349.59;;;29.39;39.50
32197;BME280;18697;42.770;23.400;2023-08-06T13:01:05;94335.16;;;29.37;39.02
32197;BME280;18697;42.770;23.400;2023-08-06T13:03:30;94344.84;;;29.32;39.36
32197;BME280;18697;42.770;23.400;2023-08-06T13:05:56;94355.41;;;29.18;38.95
32197;BME280;18697;42.770;23.400;2023-08-06T13:08:23;94354.53;;;29.15;39.05